sensor_id;sensor_type;location;lat;lon;timestamp;temperature;humidity
1686;DHT22;840;47.980;7.830;2023-02-20T00:01:29;10.60;99.90
1686;DHT22;840;47.980;7.830;2023-02-20T00:03:56;10.50;99.90
1686;DHT22;840;47.980;7.830;2023-02-20T00:06:23;10.50;99.90
1686;DHT22;840;47.980;7.830;2023-02-20T00:08:51;10.40;99.90
1686;DHT22;840;47.980;7.830;2023-02-20T00:11:19;10.40;99.90
1686;DHT22;840;47.980;7.830;2023-02-20T00:13:49;10.40;99.90
1686;DHT22;840;47.980;7.830;2023-02-20T00:16:16;10.40;99.90
1686;DHT22;840;47.980;7.830;2023-02-20T00:18:43;10.30;99.90
1686;DHT22;840;47.980;7.830;2023-02-20T00:21:13;10.30;99.90
1686;DHT22;840;47.980;7.830;2023-02-20T00:23:39;10.30;99.90
1686;DHT22;840;47.980;7.830;2023-02-20T00:26:08;10.30;99.90
1686;DHT22;840;47.980;7.830;2023-02-20T00:28:38;10.30;99.90
1686;DHT22;840;47.980;7.830;2023-02-20T00:31:05;10.30;99.90
1686;DHT22;840;47.980;7.830;2023-02-20T00:33:32;10.20;99.90
1686;DHT22;840;47.980;7.830;2023-02-20T00:36:03;10.20;99.90
1686;DHT22;840;47.980;7.830;2023-02-20T00:38:30;10.20;99.90
1686;DHT22;840;47.980;7.830;2023-02-20T00:40:57;10.20;99.90
1686;DHT22;840;47.980;7.830;2023-02-20T00:43:24;10.10;99.90
1686;DHT22;840;47.980;7.830;2023-02-20T00:45:54;10.10;99.90
1686;DHT22;840;47.980;7.830;2023-02-20T00:48:22;10.00;99.90
1686;DHT22;840;47.980;7.830;2023-02-20T00:50:50;9.90;99.90
1686;DHT22;840;47.980;7.830;2023-02-20T00:53:17;9.90;99.90
1686;DHT22;840;47.980;7.830;2023-02-20T00:55:44;9.80;99.90
1686;DHT22;840;47.980;7.830;2023-02-20T00:58:12;9.80;99.90
1686;DHT22;840;47.980;7.830;2023-02-20T01:00:39;9.80;99.90
1686;DHT22;840;47.980;7.830;2023-02-20T01:03:08;9.70;99.90
1686;DHT22;840;47.980;7.830;2023-02-20T01:05:35;9.60;99.90
1686;DHT22;840;47.980;7.830;2023-02-20T01:08:02;9.60;99.90
1686;DHT22;840;47.980;7.830;2023-02-20T01:10:29;9.50;99.90
1686;DHT22;840;47.980;7.830;2023-02-20T01:12:56;9.50;99.90
1686;DHT22;840;47.980;7.830;2023-02-20T01:15:23;9.50;99.90
1686;DHT22;840;47.980;7.830;2023-02-20T01:17:49;9.50;99.90
1686;DHT22;840;47.980;7.830;2023-02-20T01:20:18;9.40;99.90
1686;DHT22;840;47.980;7.830;2023-02-20T01:22:45;9.40;99.90
1686;DHT22;840;47.980;7.830;2023-02-20T01:25:12;9.40;99.90
1686;DHT22;840;47.980;7.830;2023-02-20T01:27:39;9.30;99.90
1686;DHT22;840;47.980;7.830;2023-02-20T01:30:07;9.30;99.90
1686;DHT22;840;47.980;7.830;2023-02-20T01:32:36;9.20;99.90
1686;DHT22;840;47.980;7.830;2023-02-20T01:35:04;9.20;99.90
1686;DHT22;840;47.980;7.830;2023-02-20T01:37:33;9.10;99.90
1686;DHT22;840;47.980;7.830;2023-02-20T01:40:00;9.00;99.90
1686;DHT22;840;47.980;7.830;2023-02-20T01:42:29;9.00;99.90
1686;DHT22;840;47.980;7.830;2023-02-20T01:45:14;9.00;99.90
1686;DHT22;840;47.980;7.830;2023-02-20T01:47:43;9.00;99.90
1686;DHT22;840;47.980;7.830;2023-02-20T01:50:12;9.00;99.90
1686;DHT22;840;47.980;7.830;2023-02-20T01:52:43;9.00;99.90
1686;DHT22;840;47.980;7.830;2023-02-20T01:55:13;8.90;99.90
1686;DHT22;840;47.980;7.830;2023-02-20T01:57:44;8.90;99.90
1686;DHT22;840;47.980;7.830;2023-02-20T02:00:16;8.90;99.90
1686;DHT22;840;47.980;7.830;2023-02-20T02:02:47;8.90;99.90
1686;DHT22;840;47.980;7.830;2023-02-20T02:05:16;8.90;99.90
1686;DHT22;840;47.980;7.830;2023-02-20T02:07:45;8.90;99.90
1686;DHT22;840;47.980;7.830;2023-02-20T02:10:19;8.80;99.90
1686;DHT22;840;47.980;7.830;2023-02-20T02:12:50;8.80;99.90
1686;DHT22;840;47.980;7.830;2023-02-20T02:15:21;8.80;99.90
1686;DHT22;840;47.980;7.830;2023-02-20T02:18:07;8.70;99.90
1686;DHT22;840;47.980;7.830;2023-02-20T02:24:03;8.70;99.90
1686;DHT22;840;47.980;7.830;2023-02-20T02:26:57;8.70;99.90
1686;DHT22;840;47.980;7.830;2023-02-20T02:29:45;8.60;99.90
1686;DHT22;840;47.980;7.830;2023-02-20T02:32:43;8.60;99.90
1686;DHT22;840;47.980;7.830;2023-02-20T02:38:10;8.50;99.90
1686;DHT22;840;47.980;7.830;2023-02-20T02:40:44;8.50;99.90
1686;DHT22;840;47.980;7.830;2023-02-20T02:43:17;8.40;99.90
1686;DHT22;840;47.980;7.830;2023-02-20T02:45:50;8.40;99.90
1686;DHT22;840;47.980;7.830;2023-02-20T02:48:21;8.40;99.90
1686;DHT22;840;47.980;7.830;2023-02-20T02:50:55;8.40;99.90
1686;DHT22;840;47.980;7.830;2023-02-20T02:53:24;8.20;99.90
1686;DHT22;840;47.980;7.830;2023-02-20T02:55:51;8.20;99.90
1686;DHT22;840;47.980;7.830;2023-02-20T02:58:19;8.20;99.90
1686;DHT22;840;47.980;7.830;2023-02-20T03:00:51;8.20;99.90
1686;DHT22;840;47.980;7.830;2023-02-20T03:03:24;8.20;99.90
1686;DHT22;840;47.980;7.830;2023-02-20T03:05:56;8.20;99.90
1686;DHT22;840;47.980;7.830;2023-02-20T03:08:30;8.20;99.90
1686;DHT22;840;47.980;7.830;2023-02-20T03:11:02;8.10;99.90
1686;DHT22;840;47.980;7.830;2023-02-20T03:13:36;8.00;99.90
1686;DHT22;840;47.980;7.830;2023-02-20T03:16:26;8.00;99.90
1686;DHT22;840;47.980;7.830;2023-02-20T03:19:00;7.90;99.90
1686;DHT22;840;47.980;7.830;2023-02-20T03:21:29;7.90;99.90
1686;DHT22;840;47.980;7.830;2023-02-20T03:24:02;7.90;99.90
1686;DHT22;840;47.980;7.830;2023-02-20T03:26:34;7.90;99.90
1686;DHT22;840;47.980;7.830;2023-02-20T03:29:05;7.80;99.90
1686;DHT22;840;47.980;7.830;2023-02-20T03:31:37;7.80;99.90
1686;DHT22;840;47.980;7.830;2023-02-20T03:34:08;7.80;99.90
1686;DHT22;840;47.980;7.830;2023-02-20T03:36:59;7.80;99.90
1686;DHT22;840;47.980;7.830;2023-02-20T03:39:50;7.80;99.90
1686;DHT22;840;47.980;7.830;2023-02-20T03:42:37;7.70;99.90
1686;DHT22;840;47.980;7.830;2023-02-20T03:45:22;7.70;99.90
1686;DHT22;840;47.980;7.830;2023-02-20T03:47:53;7.60;99.90
1686;DHT22;840;47.980;7.830;2023-02-20T03:50:22;7.60;99.90
1686;DHT22;840;47.980;7.830;2023-02-20T03:52:49;7.60;99.90
1686;DHT22;840;47.980;7.830;2023-02-20T03:55:19;7.60;99.90
1686;DHT22;840;47.980;7.830;2023-02-20T03:57:49;7.60;99.90
1686;DHT22;840;47.980;7.830;2023-02-20T04:00:19;7.60;99.90
1686;DHT22;840;47.980;7.830;2023-02-20T04:02:50;7.60;99.90
1686;DHT22;840;47.980;7.830;2023-02-20T04:05:22;7.50;99.90
1686;DHT22;840;47.980;7.830;2023-02-20T04:07:53;7.50;99.90
1686;DHT22;840;47.980;7.830;2023-02-20T04:10:25;7.50;99.90
1686;DHT22;840;47.980;7.830;2023-02-20T04:12:54;7.50;99.90
1686;DHT22;840;47.980;7.830;2023-02-20T04:15:23;7.50;99.90
1686;DHT22;840;47.980;7.830;2023-02-20T04:17:55;7.50;99.90
1686;DHT22;840;47.980;7.830;2023-02-20T04:20:24;7.50;99.90
1686;DHT22;840;47.980;7.830;2023-02-20T04:22:53;7.40;99.90
1686;DHT22;840;47.980;7.830;2023-02-20T04:25:30;7.40;99.90
1686;DHT22;840;47.980;7.830;2023-02-20T04:28:00;7.40;99.90
1686;DHT22;840;47.980;7.830;2023-02-20T04:30:28;7.40;99.90
1686;DHT22;840;47.980;7.830;2023-02-20T04:32:57;7.30;99.90
1686;DHT22;840;47.980;7.830;2023-02-20T04:35:24;7.20;99.90
1686;DHT22;840;47.980;7.830;2023-02-20T04:37:51;7.20;99.90
1686;DHT22;840;47.980;7.830;2023-02-20T04:40:21;7.20;99.90
1686;DHT22;840;47.980;7.830;2023-02-20T04:42:49;7.10;99.90
1686;DHT22;840;47.980;7.830;2023-02-20T04:45:16;7.20;99.90
1686;DHT22;840;47.980;7.830;2023-02-20T04:47:43;7.20;99.90
1686;DHT22;840;47.980;7.830;2023-02-20T04:50:15;7.20;99.90
1686;DHT22;840;47.980;7.830;2023-02-20T04:52:43;7.20;99.90
1686;DHT22;840;47.980;7.830;2023-02-20T04:55:11;7.20;99.90
1686;DHT22;840;47.980;7.830;2023-02-20T04:57:38;7.20;99.90
1686;DHT22;840;47.980;7.830;2023-02-20T05:00:08;7.20;99.90
1686;DHT22;840;47.980;7.830;2023-02-20T05:02:37;7.20;99.90
1686;DHT22;840;47.980;7.830;2023-02-20T05:05:06;7.20;99.90
1686;DHT22;840;47.980;7.830;2023-02-20T05:07:40;7.20;99.90
1686;DHT22;840;47.980;7.830;2023-02-20T05:10:07;7.20;99.90
1686;DHT22;840;47.980;7.830;2023-02-20T05:12:34;7.20;99.90
1686;DHT22;840;47.980;7.830;2023-02-20T05:15:02;7.10;99.90
1686;DHT22;840;47.980;7.830;2023-02-20T05:17:30;7.10;99.90
1686;DHT22;840;47.980;7.830;2023-02-20T05:19:57;7.10;99.90
1686;DHT22;840;47.980;7.830;2023-02-20T05:22:24;7.10;99.90
1686;DHT22;840;47.980;7.830;2023-02-20T05:24:50;7.00;99.90
1686;DHT22;840;47.980;7.830;2023-02-20T05:27:20;7.00;99.90
1686;DHT22;840;47.980;7.830;2023-02-20T05:29:48;6.90;99.90
1686;DHT22;840;47.980;7.830;2023-02-20T05:32:18;6.90;99.90
1686;DHT22;840;47.980;7.830;2023-02-20T05:34:47;6.90;99.90
1686;DHT22;840;47.980;7.830;2023-02-20T05:37:16;6.80;99.90
1686;DHT22;840;47.980;7.830;2023-02-20T05:39:44;6.70;99.90
1686;DHT22;840;47.980;7.830;2023-02-20T05:42:12;6.70;99.90
1686;DHT22;840;47.980;7.830;2023-02-20T05:44:39;6.70;99.90
1686;DHT22;840;47.980;7.830;2023-02-20T05:47:06;6.70;99.90
1686;DHT22;840;47.980;7.830;2023-02-20T05:49:34;6.80;99.90
1686;DHT22;840;47.980;7.830;2023-02-20T05:52:04;6.70;99.90
1686;DHT22;840;47.980;7.830;2023-02-20T05:54:35;6.70;99.90
1686;DHT22;840;47.980;7.830;2023-02-20T05:57:04;6.70;99.90
1686;DHT22;840;47.980;7.830;2023-02-20T05:59:31;6.70;99.90
1686;DHT22;840;47.980;7.830;2023-02-20T06:01:59;6.70;99.90
1686;DHT22;840;47.980;7.830;2023-02-20T06:04:26;6.70;99.90
1686;DHT22;840;47.980;7.830;2023-02-20T06:06:54;6.70;99.90
1686;DHT22;840;47.980;7.830;2023-02-20T06:09:23;6.70;99.90
1686;DHT22;840;47.980;7.830;2023-02-20T06:11:52;6.70;99.90
1686;DHT22;840;47.980;7.830;2023-02-20T06:14:20;6.70;99.90
1686;DHT22;840;47.980;7.830;2023-02-20T06:16:47;6.70;99.90
1686;DHT22;840;47.980;7.830;2023-02-20T06:19:19;6.70;99.90
1686;DHT22;840;47.980;7.830;2023-02-20T06:21:47;6.70;99.90
1686;DHT22;840;47.980;7.830;2023-02-20T06:24:14;6.80;99.90
1686;DHT22;840;47.980;7.830;2023-02-20T06:26:44;6.80;99.90
1686;DHT22;840;47.980;7.830;2023-02-20T06:29:12;6.90;99.90
1686;DHT22;840;47.980;7.830;2023-02-20T06:31:41;6.90;99.90
1686;DHT22;840;47.980;7.830;2023-02-20T06:34:09;6.80;99.90
1686;DHT22;840;47.980;7.830;2023-02-20T06:36:39;6.80;99.90
1686;DHT22;840;47.980;7.830;2023-02-20T06:39:07;6.80;99.90
1686;DHT22;840;47.980;7.830;2023-02-20T06:41:53;6.90;99.90
1686;DHT22;840;47.980;7.830;2023-02-20T06:44:28;6.80;99.90
1686;DHT22;840;47.980;7.830;2023-02-20T06:46:59;6.80;99.90
1686;DHT22;840;47.980;7.830;2023-02-20T06:49:29;6.70;99.90
1686;DHT22;840;47.980;7.830;2023-02-20T06:52:06;6.70;99.90
1686;DHT22;840;47.980;7.830;2023-02-20T06:54:34;6.70;99.90
1686;DHT22;840;47.980;7.830;2023-02-20T06:57:03;6.70;99.90
1686;DHT22;840;47.980;7.830;2023-02-20T06:59:32;6.70;99.90
1686;DHT22;840;47.980;7.830;2023-02-20T07:02:14;6.70;99.90
1686;DHT22;840;47.980;7.830;2023-02-20T07:04:46;6.70;99.90
1686;DHT22;840;47.980;7.830;2023-02-20T07:07:13;6.70;99.90
1686;DHT22;840;47.980;7.830;2023-02-20T07:09:40;6.70;99.90
1686;DHT22;840;47.980;7.830;2023-02-20T07:12:09;6.70;99.90
1686;DHT22;840;47.980;7.830;2023-02-20T07:14:36;6.70;99.90
1686;DHT22;840;47.980;7.830;2023-02-20T07:17:03;6.70;99.90
1686;DHT22;840;47.980;7.830;2023-02-20T07:19:30;6.70;99.90
1686;DHT22;840;47.980;7.830;2023-02-20T07:21:57;6.80;99.90
1686;DHT22;840;47.980;7.830;2023-02-20T07:24:23;6.80;99.90
1686;DHT22;840;47.980;7.830;2023-02-20T07:26:50;6.90;99.90
1686;DHT22;840;47.980;7.830;2023-02-20T07:29:19;6.90;99.90
1686;DHT22;840;47.980;7.830;2023-02-20T07:31:46;6.90;99.90
1686;DHT22;840;47.980;7.830;2023-02-20T07:34:34;7.00;99.90
1686;DHT22;840;47.980;7.830;2023-02-20T07:37:04;7.00;99.90
1686;DHT22;840;47.980;7.830;2023-02-20T07:39:31;7.00;99.90
1686;DHT22;840;47.980;7.830;2023-02-20T07:41:57;7.10;99.90
1686;DHT22;840;47.980;7.830;2023-02-20T07:44:26;7.10;99.90
1686;DHT22;840;47.980;7.830;2023-02-20T07:46:53;7.10;99.90
1686;DHT22;840;47.980;7.830;2023-02-20T07:49:20;7.20;99.90
1686;DHT22;840;47.980;7.830;2023-02-20T07:51:47;7.20;99.90
1686;DHT22;840;47.980;7.830;2023-02-20T07:54:14;7.30;99.90
1686;DHT22;840;47.980;7.830;2023-02-20T07:56:41;7.40;99.90
1686;DHT22;840;47.980;7.830;2023-02-20T07:59:10;7.40;99.90
1686;DHT22;840;47.980;7.830;2023-02-20T08:02:24;7.40;99.90
1686;DHT22;840;47.980;7.830;2023-02-20T08:04:51;7.50;99.90
1686;DHT22;840;47.980;7.830;2023-02-20T08:07:18;7.60;99.90
1686;DHT22;840;47.980;7.830;2023-02-20T08:09:45;7.80;99.90
1686;DHT22;840;47.980;7.830;2023-02-20T08:12:13;7.90;99.90
1686;DHT22;840;47.980;7.830;2023-02-20T08:14:40;8.00;99.90
1686;DHT22;840;47.980;7.830;2023-02-20T08:17:09;8.10;99.90
1686;DHT22;840;47.980;7.830;2023-02-20T08:19:39;8.20;99.90
1686;DHT22;840;47.980;7.830;2023-02-20T08:22:06;8.30;99.90
1686;DHT22;840;47.980;7.830;2023-02-20T08:24:32;8.30;99.90
1686;DHT22;840;47.980;7.830;2023-02-20T08:27:04;8.40;99.90
1686;DHT22;840;47.980;7.830;2023-02-20T08:29:31;8.40;99.90
1686;DHT22;840;47.980;7.830;2023-02-20T08:31:58;8.40;99.90
1686;DHT22;840;47.980;7.830;2023-02-20T08:34:25;8.40;99.90
1686;DHT22;840;47.980;7.830;2023-02-20T08:36:54;8.50;99.90
1686;DHT22;840;47.980;7.830;2023-02-20T08:39:24;8.50;99.90
1686;DHT22;840;47.980;7.830;2023-02-20T08:41:52;8.50;99.90
1686;DHT22;840;47.980;7.830;2023-02-20T08:44:19;8.50;99.90
1686;DHT22;840;47.980;7.830;2023-02-20T08:46:47;8.60;99.90
1686;DHT22;840;47.980;7.830;2023-02-20T08:49:14;8.60;99.90
1686;DHT22;840;47.980;7.830;2023-02-20T08:51:43;8.70;99.90
1686;DHT22;840;47.980;7.830;2023-02-20T08:54:15;8.80;99.90
1686;DHT22;840;47.980;7.830;2023-02-20T08:56:43;8.80;99.90
1686;DHT22;840;47.980;7.830;2023-02-20T08:59:40;8.90;99.90
1686;DHT22;840;47.980;7.830;2023-02-20T09:02:23;9.00;99.90
1686;DHT22;840;47.980;7.830;2023-02-20T09:08:28;9.20;99.90
1686;DHT22;840;47.980;7.830;2023-02-20T09:19:05;9.40;99.90
1686;DHT22;840;47.980;7.830;2023-02-20T09:33:46;9.90;99.90
1686;DHT22;840;47.980;7.830;2023-02-20T11:03:53;11.60;99.90
1686;DHT22;840;47.980;7.830;2023-02-20T11:06:25;11.60;99.90
1686;DHT22;840;47.980;7.830;2023-02-20T11:08:53;11.60;99.90
1686;DHT22;840;47.980;7.830;2023-02-20T11:11:24;11.60;99.90
1686;DHT22;840;47.980;7.830;2023-02-20T11:13:51;11.60;99.90
1686;DHT22;840;47.980;7.830;2023-02-20T11:16:24;11.60;99.90
1686;DHT22;840;47.980;7.830;2023-02-20T11:19:05;11.60;99.90
1686;DHT22;840;47.980;7.830;2023-02-20T11:21:38;11.80;99.90
1686;DHT22;840;47.980;7.830;2023-02-20T11:39:28;12.30;99.90
1686;DHT22;840;47.980;7.830;2023-02-20T11:42:10;12.30;99.90
1686;DHT22;840;47.980;7.830;2023-02-20T11:48:09;12.20;99.90
1686;DHT22;840;47.980;7.830;2023-02-20T11:50:40;12.20;99.90
1686;DHT22;840;47.980;7.830;2023-02-20T11:53:17;12.40;99.90
1686;DHT22;840;47.980;7.830;2023-02-20T11:55:46;12.40;99.90
1686;DHT22;840;47.980;7.830;2023-02-20T11:58:21;12.40;99.90
1686;DHT22;840;47.980;7.830;2023-02-20T12:00:52;12.50;99.90
1686;DHT22;840;47.980;7.830;2023-02-20T12:03:22;12.50;99.90
1686;DHT22;840;47.980;7.830;2023-02-20T12:05:49;12.60;99.90
1686;DHT22;840;47.980;7.830;2023-02-20T12:08:40;12.60;99.90
1686;DHT22;840;47.980;7.830;2023-02-20T12:11:12;12.70;99.90
1686;DHT22;840;47.980;7.830;2023-02-20T12:13:42;12.70;99.90
1686;DHT22;840;47.980;7.830;2023-02-20T12:16:31;12.80;99.90
1686;DHT22;840;47.980;7.830;2023-02-20T12:19:06;12.80;99.90
1686;DHT22;840;47.980;7.830;2023-02-20T12:21:43;12.80;99.90
1686;DHT22;840;47.980;7.830;2023-02-20T12:25:00;12.90;99.90
1686;DHT22;840;47.980;7.830;2023-02-20T12:31:05;12.90;99.90
1686;DHT22;840;47.980;7.830;2023-02-20T12:34:18;13.00;99.90
1686;DHT22;840;47.980;7.830;2023-02-20T12:37:29;13.00;99.90
1686;DHT22;840;47.980;7.830;2023-02-20T12:40:11;13.10;99.90
1686;DHT22;840;47.980;7.830;2023-02-20T12:43:13;13.10;99.90
1686;DHT22;840;47.980;7.830;2023-02-20T12:46:36;13.20;99.90
1686;DHT22;840;47.980;7.830;2023-02-20T12:49:57;13.30;99.90
1686;DHT22;840;47.980;7.830;2023-02-20T12:52:57;13.30;99.90
1686;DHT22;840;47.980;7.830;2023-02-20T12:55:33;13.40;99.90
1686;DHT22;840;47.980;7.830;2023-02-20T12:58:14;13.40;99.90
1686;DHT22;840;47.980;7.830;2023-02-20T13:00:46;13.50;99.90
1686;DHT22;840;47.980;7.830;2023-02-20T13:03:56;13.60;99.90
1686;DHT22;840;47.980;7.830;2023-02-20T13:06:29;13.70;99.90
1686;DHT22;840;47.980;7.830;2023-02-20T13:18:11;13.80;99.90
1686;DHT22;840;47.980;7.830;2023-02-20T13:20:48;13.90;99.90
1686;DHT22;840;47.980;7.830;2023-02-20T13:23:31;14.00;99.90
1686;DHT22;840;47.980;7.830;2023-02-20T13:26:01;14.00;99.90
1686;DHT22;840;47.980;7.830;2023-02-20T13:28:40;14.00;99.90
1686;DHT22;840;47.980;7.830;2023-02-20T13:31:16;14.10;99.90
1686;DHT22;840;47.980;7.830;2023-02-20T13:33:45;14.20;99.90
1686;DHT22;840;47.980;7.830;2023-02-20T13:36:40;14.40;99.90
1686;DHT22;840;47.980;7.830;2023-02-20T13:39:36;14.50;99.90
1686;DHT22;840;47.980;7.830;2023-02-20T13:42:30;14.60;99.90
1686;DHT22;840;47.980;7.830;2023-02-20T13:44:57;14.70;99.90
1686;DHT22;840;47.980;7.830;2023-02-20T13:47:34;14.80;99.90
1686;DHT22;840;47.980;7.830;2023-02-20T13:50:29;14.90;99.90
1686;DHT22;840;47.980;7.830;2023-02-20T13:55:41;15.20;99.90
1686;DHT22;840;47.980;7.830;2023-02-20T13:58:11;15.40;99.90
1686;DHT22;840;47.980;7.830;2023-02-20T14:00:48;15.50;99.90
1686;DHT22;840;47.980;7.830;2023-02-20T14:03:23;15.70;99.90
1686;DHT22;840;47.980;7.830;2023-02-20T14:06:06;15.80;99.90
1686;DHT22;840;47.980;7.830;2023-02-20T14:08:34;16.00;99.90
1686;DHT22;840;47.980;7.830;2023-02-20T14:11:06;16.10;99.90
1686;DHT22;840;47.980;7.830;2023-02-20T14:13:37;16.20;99.90
1686;DHT22;840;47.980;7.830;2023-02-20T14:16:26;16.30;99.90
1686;DHT22;840;47.980;7.830;2023-02-20T14:18:56;16.50;99.90
1686;DHT22;840;47.980;7.830;2023-02-20T14:21:24;16.60;99.90
1686;DHT22;840;47.980;7.830;2023-02-20T14:23:52;16.60;99.90
1686;DHT22;840;47.980;7.830;2023-02-20T14:26:22;16.60;99.90
1686;DHT22;840;47.980;7.830;2023-02-20T14:28:52;16.60;99.90
1686;DHT22;840;47.980;7.830;2023-02-20T14:31:23;16.80;99.90
1686;DHT22;840;47.980;7.830;2023-02-20T14:33:54;17.00;99.90
1686;DHT22;840;47.980;7.830;2023-02-20T14:39:52;17.20;99.90
1686;DHT22;840;47.980;7.830;2023-02-20T14:42:26;17.40;99.90
1686;DHT22;840;47.980;7.830;2023-02-20T14:44:59;17.50;99.90
1686;DHT22;840;47.980;7.830;2023-02-20T14:47:26;17.70;99.90
1686;DHT22;840;47.980;7.830;2023-02-20T14:49:53;17.80;99.90
1686;DHT22;840;47.980;7.830;2023-02-20T14:52:21;17.90;98.80
1686;DHT22;840;47.980;7.830;2023-02-20T14:54:59;18.00;98.80
1686;DHT22;840;47.980;7.830;2023-02-20T14:57:29;18.10;97.80
1686;DHT22;840;47.980;7.830;2023-02-20T15:00:31;18.00;97.70
1686;DHT22;840;47.980;7.830;2023-02-20T15:02:59;18.10;96.70
1686;DHT22;840;47.980;7.830;2023-02-20T15:05:29;18.30;96.90
1686;DHT22;840;47.980;7.830;2023-02-20T15:08:05;18.50;96.20
1686;DHT22;840;47.980;7.830;2023-02-20T15:10:41;18.60;96.40
1686;DHT22;840;47.980;7.830;2023-02-20T15:13:10;18.70;95.90
1686;DHT22;840;47.980;7.830;2023-02-20T15:15:42;18.80;94.60
1686;DHT22;840;47.980;7.830;2023-02-20T15:18:12;18.70;95.20
1686;DHT22;840;47.980;7.830;2023-02-20T15:20:43;18.80;94.10
1686;DHT22;840;47.980;7.830;2023-02-20T15:23:29;18.90;93.60
1686;DHT22;840;47.980;7.830;2023-02-20T15:26:28;19.00;93.30
1686;DHT22;840;47.980;7.830;2023-02-20T15:29:20;19.10;93.60
1686;DHT22;840;47.980;7.830;2023-02-20T15:31:54;19.20;92.30
1686;DHT22;840;47.980;7.830;2023-02-20T15:34:23;19.30;91.50
1686;DHT22;840;47.980;7.830;2023-02-20T15:37:21;19.00;90.20
1686;DHT22;840;47.980;7.830;2023-02-20T15:39:54;18.80;91.40
1686;DHT22;840;47.980;7.830;2023-02-20T15:42:23;18.80;90.90
1686;DHT22;840;47.980;7.830;2023-02-20T15:44:57;18.80;90.70
1686;DHT22;840;47.980;7.830;2023-02-20T16:09:34;16.90;92.60
1686;DHT22;840;47.980;7.830;2023-02-20T16:15:28;16.70;93.50
1686;DHT22;840;47.980;7.830;2023-02-20T16:23:21;16.40;94.60
1686;DHT22;840;47.980;7.830;2023-02-20T16:26:00;16.30;94.90
1686;DHT22;840;47.980;7.830;2023-02-20T16:28:27;16.30;95.20
1686;DHT22;840;47.980;7.830;2023-02-20T16:30:54;16.30;95.40
1686;DHT22;840;47.980;7.830;2023-02-20T16:33:21;16.10;95.60
1686;DHT22;840;47.980;7.830;2023-02-20T16:35:50;16.10;96.00
1686;DHT22;840;47.980;7.830;2023-02-20T17:01:36;15.10;99.90
1686;DHT22;840;47.980;7.830;2023-02-20T17:04:29;15.00;99.90
1686;DHT22;840;47.980;7.830;2023-02-20T17:07:18;14.80;99.90
1686;DHT22;840;47.980;7.830;2023-02-20T17:33:48;13.70;99.90
1686;DHT22;840;47.980;7.830;2023-02-20T17:36:15;13.70;99.90
1686;DHT22;840;47.980;7.830;2023-02-20T17:38:43;13.50;99.90
1686;DHT22;840;47.980;7.830;2023-02-20T17:41:11;13.40;99.90
1686;DHT22;840;47.980;7.830;2023-02-20T17:43:39;13.40;99.90
1686;DHT22;840;47.980;7.830;2023-02-20T17:46:07;13.30;99.90
1686;DHT22;840;47.980;7.830;2023-02-20T17:48:35;13.20;99.90
1686;DHT22;840;47.980;7.830;2023-02-20T17:51:04;13.10;99.90
1686;DHT22;840;47.980;7.830;2023-02-20T17:53:31;13.10;99.90
1686;DHT22;840;47.980;7.830;2023-02-20T17:56:01;13.10;99.90
1686;DHT22;840;47.980;7.830;2023-02-20T17:58:29;12.90;99.90
1686;DHT22;840;47.980;7.830;2023-02-20T18:00:57;12.90;99.90
1686;DHT22;840;47.980;7.830;2023-02-20T18:03:40;12.80;99.90
1686;DHT22;840;47.980;7.830;2023-02-20T18:06:11;12.60;99.90
1686;DHT22;840;47.980;7.830;2023-02-20T18:08:40;12.60;99.90
1686;DHT22;840;47.980;7.830;2023-02-20T18:11:17;12.50;99.90
1686;DHT22;840;47.980;7.830;2023-02-20T18:24:10;12.30;99.90
1686;DHT22;840;47.980;7.830;2023-02-20T18:26:37;12.30;99.90
1686;DHT22;840;47.980;7.830;2023-02-20T18:29:04;12.10;99.90
1686;DHT22;840;47.980;7.830;2023-02-20T18:31:31;12.10;99.90
1686;DHT22;840;47.980;7.830;2023-02-20T18:33:58;12.00;99.90
1686;DHT22;840;47.980;7.830;2023-02-20T18:36:27;12.00;99.90
1686;DHT22;840;47.980;7.830;2023-02-20T18:38:54;12.00;99.90
1686;DHT22;840;47.980;7.830;2023-02-20T18:41:23;11.80;99.90
1686;DHT22;840;47.980;7.830;2023-02-20T18:43:50;11.80;99.90
1686;DHT22;840;47.980;7.830;2023-02-20T18:46:25;11.80;99.90
1686;DHT22;840;47.980;7.830;2023-02-20T18:48:52;11.80;99.90
1686;DHT22;840;47.980;7.830;2023-02-20T18:51:25;11.70;99.90
1686;DHT22;840;47.980;7.830;2023-02-20T18:54:16;11.70;99.90
1686;DHT22;840;47.980;7.830;2023-02-20T18:56:46;11.70;99.90
1686;DHT22;840;47.980;7.830;2023-02-20T18:59:14;11.70;99.90
1686;DHT22;840;47.980;7.830;2023-02-20T19:01:42;11.70;99.90
1686;DHT22;840;47.980;7.830;2023-02-20T19:04:11;11.60;99.90
1686;DHT22;840;47.980;7.830;2023-02-20T19:06:38;11.60;99.90
1686;DHT22;840;47.980;7.830;2023-02-20T19:09:08;11.60;99.90
1686;DHT22;840;47.980;7.830;2023-02-20T19:11:37;11.50;99.90
1686;DHT22;840;47.980;7.830;2023-02-20T19:14:05;11.50;99.90
1686;DHT22;840;47.980;7.830;2023-02-20T19:16:38;11.40;99.90
1686;DHT22;840;47.980;7.830;2023-02-20T19:19:06;11.40;99.90
1686;DHT22;840;47.980;7.830;2023-02-20T19:21:35;11.40;99.90
1686;DHT22;840;47.980;7.830;2023-02-20T19:24:03;11.30;99.90
1686;DHT22;840;47.980;7.830;2023-02-20T19:26:33;11.20;99.90
1686;DHT22;840;47.980;7.830;2023-02-20T19:29:01;11.10;99.90
1686;DHT22;840;47.980;7.830;2023-02-20T19:31:29;11.10;99.90
1686;DHT22;840;47.980;7.830;2023-02-20T19:34:00;11.00;99.90
1686;DHT22;840;47.980;7.830;2023-02-20T19:36:27;11.00;99.90
1686;DHT22;840;47.980;7.830;2023-02-20T19:38:54;10.90;99.90
1686;DHT22;840;47.980;7.830;2023-02-20T19:41:21;10.90;99.90
1686;DHT22;840;47.980;7.830;2023-02-20T19:43:48;10.90;99.90
1686;DHT22;840;47.980;7.830;2023-02-20T19:46:19;10.90;99.90
1686;DHT22;840;47.980;7.830;2023-02-20T19:48:49;10.90;99.90
1686;DHT22;840;47.980;7.830;2023-02-20T19:51:17;10.90;99.90
1686;DHT22;840;47.980;7.830;2023-02-20T19:53:45;10.90;99.90
1686;DHT22;840;47.980;7.830;2023-02-20T19:56:12;10.80;99.90
1686;DHT22;840;47.980;7.830;2023-02-20T19:58:40;10.80;99.90
1686;DHT22;840;47.980;7.830;2023-02-20T20:01:09;10.80;99.90
1686;DHT22;840;47.980;7.830;2023-02-20T20:03:36;10.80;99.90
1686;DHT22;840;47.980;7.830;2023-02-20T20:06:07;10.70;99.90
1686;DHT22;840;47.980;7.830;2023-02-20T20:08:35;10.80;99.90
1686;DHT22;840;47.980;7.830;2023-02-20T20:11:02;10.80;99.90
1686;DHT22;840;47.980;7.830;2023-02-20T20:13:29;10.80;99.90
1686;DHT22;840;47.980;7.830;2023-02-20T20:15:56;10.80;99.90
1686;DHT22;840;47.980;7.830;2023-02-20T20:18:24;10.70;99.90
1686;DHT22;840;47.980;7.830;2023-02-20T20:20:51;10.70;99.90
1686;DHT22;840;47.980;7.830;2023-02-20T20:23:19;10.60;99.90
1686;DHT22;840;47.980;7.830;2023-02-20T20:25:46;10.50;99.90
1686;DHT22;840;47.980;7.830;2023-02-20T20:28:13;10.50;99.90
1686;DHT22;840;47.980;7.830;2023-02-20T20:30:40;10.50;99.90
1686;DHT22;840;47.980;7.830;2023-02-20T20:33:07;10.40;99.90
1686;DHT22;840;47.980;7.830;2023-02-20T20:35:34;10.30;99.90
1686;DHT22;840;47.980;7.830;2023-02-20T20:38:03;10.10;99.90
1686;DHT22;840;47.980;7.830;2023-02-20T20:40:31;10.10;99.90
1686;DHT22;840;47.980;7.830;2023-02-20T20:42:58;10.10;99.90
1686;DHT22;840;47.980;7.830;2023-02-20T20:45:25;10.00;99.90
1686;DHT22;840;47.980;7.830;2023-02-20T20:47:52;9.90;99.90
1686;DHT22;840;47.980;7.830;2023-02-20T20:50:22;9.80;99.90
1686;DHT22;840;47.980;7.830;2023-02-20T20:52:52;9.80;99.90
1686;DHT22;840;47.980;7.830;2023-02-20T20:55:19;9.80;99.90
1686;DHT22;840;47.980;7.830;2023-02-20T20:57:47;9.80;99.90
1686;DHT22;840;47.980;7.830;2023-02-20T21:00:19;9.80;99.90
1686;DHT22;840;47.980;7.830;2023-02-20T21:02:47;9.80;99.90